sensor_id;sensor_type;location;lat;lon;timestamp;P1;durP1;ratioP1;P2;durP2;ratioP2
50695;SDS011;36665;51.786;21.594;2023-02-04T00:01:35;10.50;;;6.00;;
50695;SDS011;36665;51.786;21.594;2023-02-04T00:09:58;14.40;;;8.80;;
50695;SDS011;36665;51.786;21.594;2023-02-04T00:18:21;9.20;;;5.40;;
50695;SDS011;36665;51.786;21.594;2023-02-04T00:26:44;11.10;;;6.50;;
50695;SDS011;36665;51.786;21.594;2023-02-04T00:35:07;10.80;;;6.70;;
50695;SDS011;36665;51.786;21.594;2023-02-04T00:43:31;8.90;;;5.10;;
50695;SDS011;36665;51.786;21.594;2023-02-04T00:51:54;8.00;;;5.00;;
50695;SDS011;36665;51.786;21.594;2023-02-04T01:00:17;9.90;;;5.40;;
50695;SDS011;36665;51.786;21.594;2023-02-04T01:08:40;7.40;;;4.40;;
50695;SDS011;36665;51.786;21.594;2023-02-04T01:17:03;12.40;;;5.70;;
50695;SDS011;36665;51.786;21.594;2023-02-04T01:25:26;11.60;;;5.90;;
50695;SDS011;36665;51.786;21.594;2023-02-04T01:33:49;10.50;;;5.70;;
50695;SDS011;36665;51.786;21.594;2023-02-04T01:42:13;11.80;;;6.00;;
50695;SDS011;36665;51.786;21.594;2023-02-04T01:50:36;10.60;;;6.20;;
50695;SDS011;36665;51.786;21.594;2023-02-04T01:59:00;14.10;;;6.20;;
50695;SDS011;36665;51.786;21.594;2023-02-04T02:07:23;12.80;;;6.50;;
50695;SDS011;36665;51.786;21.594;2023-02-04T02:15:46;10.30;;;6.40;;
50695;SDS011;36665;51.786;21.594;2023-02-04T02:32:53;12.80;;;6.20;;
50695;SDS011;36665;51.786;21.594;2023-02-04T02:41:17;7.70;;;5.10;;
50695;SDS011;36665;51.786;21.594;2023-02-04T02:49:40;9.60;;;5.50;;
50695;SDS011;36665;51.786;21.594;2023-02-04T02:58:04;14.20;;;7.70;;
50695;SDS011;36665;51.786;21.594;2023-02-04T03:06:38;9.20;;;4.60;;
50695;SDS011;36665;51.786;21.594;2023-02-04T03:15:02;18.50;;;9.00;;
50695;SDS011;36665;51.786;21.594;2023-02-04T03:23:26;6.30;;;3.80;;
50695;SDS011;36665;51.786;21.594;2023-02-04T03:31:50;8.60;;;3.70;;
50695;SDS011;36665;51.786;21.594;2023-02-04T03:40:17;5.90;;;3.10;;
50695;SDS011;36665;51.786;21.594;2023-02-04T03:48:41;18.70;;;4.40;;
50695;SDS011;36665;51.786;21.594;2023-02-04T03:57:04;34.40;;;13.30;;
50695;SDS011;36665;51.786;21.594;2023-02-04T04:05:27;7.20;;;4.10;;
50695;SDS011;36665;51.786;21.594;2023-02-04T04:13:50;7.00;;;3.90;;
50695;SDS011;36665;51.786;21.594;2023-02-04T04:22:14;14.80;;;5.40;;
50695;SDS011;36665;51.786;21.594;2023-02-04T04:30:37;10.50;;;4.90;;
50695;SDS011;36665;51.786;21.594;2023-02-04T04:39:00;10.60;;;4.00;;
50695;SDS011;36665;51.786;21.594;2023-02-04T04:47:23;8.40;;;4.70;;
50695;SDS011;36665;51.786;21.594;2023-02-04T04:55:46;5.10;;;3.10;;
50695;SDS011;36665;51.786;21.594;2023-02-04T05:04:09;5.90;;;3.60;;
50695;SDS011;36665;51.786;21.594;2023-02-04T05:12:32;6.10;;;3.10;;
50695;SDS011;36665;51.786;21.594;2023-02-04T05:20:55;7.20;;;4.40;;
50695;SDS011;36665;51.786;21.594;2023-02-04T05:29:18;12.00;;;4.00;;
50695;SDS011;36665;51.786;21.594;2023-02-04T05:37:41;12.00;;;5.20;;
50695;SDS011;36665;51.786;21.594;2023-02-04T05:46:04;9.50;;;4.70;;
50695;SDS011;36665;51.786;21.594;2023-02-04T05:54:29;16.40;;;7.60;;
50695;SDS011;36665;51.786;21.594;2023-02-04T06:02:54;15.50;;;4.90;;
50695;SDS011;36665;51.786;21.594;2023-02-04T06:11:18;17.90;;;9.10;;
50695;SDS011;36665;51.786;21.594;2023-02-04T06:19:41;28.70;;;11.00;;
50695;SDS011;36665;51.786;21.594;2023-02-04T06:28:03;35.00;;;14.00;;
50695;SDS011;36665;51.786;21.594;2023-02-04T06:36:26;24.30;;;9.10;;
50695;SDS011;36665;51.786;21.594;2023-02-04T06:44:50;33.80;;;15.60;;
50695;SDS011;36665;51.786;21.594;2023-02-04T06:53:14;25.60;;;12.00;;
50695;SDS011;36665;51.786;21.594;2023-02-04T07:01:37;33.00;;;14.10;;
50695;SDS011;36665;51.786;21.594;2023-02-04T07:10:00;34.70;;;13.60;;
50695;SDS011;36665;51.786;21.594;2023-02-04T07:18:23;22.80;;;9.30;;
50695;SDS011;36665;51.786;21.594;2023-02-04T07:26:46;60.80;;;21.30;;
50695;SDS011;36665;51.786;21.594;2023-02-04T07:35:09;61.40;;;17.90;;
50695;SDS011;36665;51.786;21.594;2023-02-04T07:43:34;50.70;;;19.80;;
50695;SDS011;36665;51.786;21.594;2023-02-04T07:51:57;41.60;;;19.80;;
50695;SDS011;36665;51.786;21.594;2023-02-04T08:00:20;26.60;;;10.20;;
50695;SDS011;36665;51.786;21.594;2023-02-04T08:08:43;28.60;;;12.70;;
50695;SDS011;36665;51.786;21.594;2023-02-04T08:17:06;20.30;;;8.30;;
50695;SDS011;36665;51.786;21.594;2023-02-04T08:25:29;24.60;;;12.10;;
50695;SDS011;36665;51.786;21.594;2023-02-04T08:33:52;34.60;;;13.30;;
50695;SDS011;36665;51.786;21.594;2023-02-04T08:42:15;51.80;;;18.70;;
50695;SDS011;36665;51.786;21.594;2023-02-04T08:50:38;20.90;;;10.60;;
50695;SDS011;36665;51.786;21.594;2023-02-04T08:59:01;31.90;;;14.20;;
50695;SDS011;36665;51.786;21.594;2023-02-04T09:07:24;175.60;;;72.50;;
50695;SDS011;36665;51.786;21.594;2023-02-04T09:15:47;24.20;;;11.90;;
50695;SDS011;36665;51.786;21.594;2023-02-04T09:24:10;26.60;;;10.40;;
50695;SDS011;36665;51.786;21.594;2023-02-04T09:32:33;15.10;;;7.10;;
50695;SDS011;36665;51.786;21.594;2023-02-04T09:40:57;24.90;;;8.10;;
50695;SDS011;36665;51.786;21.594;2023-02-04T09:49:23;67.50;;;20.10;;
50695;SDS011;36665;51.786;21.594;2023-02-04T09:57:48;42.30;;;10.30;;
50695;SDS011;36665;51.786;21.594;2023-02-04T10:06:12;44.30;;;14.30;;
50695;SDS011;36665;51.786;21.594;2023-02-04T10:14:36;26.60;;;9.90;;
50695;SDS011;36665;51.786;21.594;2023-02-04T10:22:59;27.90;;;11.00;;
50695;SDS011;36665;51.786;21.594;2023-02-04T10:31:35;26.80;;;9.90;;
50695;SDS011;36665;51.786;21.594;2023-02-04T10:40:00;42.40;;;12.80;;
50695;SDS011;36665;51.786;21.594;2023-02-04T10:48:24;24.40;;;9.60;;
50695;SDS011;36665;51.786;21.594;2023-02-04T10:56:47;20.90;;;9.40;;
50695;SDS011;36665;51.786;21.594;2023-02-04T11:05:12;25.10;;;8.90;;
50695;SDS011;36665;51.786;21.594;2023-02-04T11:13:40;17.00;;;7.20;;
50695;SDS011;36665;51.786;21.594;2023-02-04T11:22:51;45.80;;;16.70;;
50695;SDS011;36665;51.786;21.594;2023-02-04T11:31:02;49.70;;;18.90;;
50695;SDS011;36665;51.786;21.594;2023-02-04T11:39:56;24.90;;;11.10;;
50695;SDS011;36665;51.786;21.594;2023-02-04T11:48:21;24.10;;;8.40;;
50695;SDS011;36665;51.786;21.594;2023-02-04T11:56:45;42.10;;;13.20;;
50695;SDS011;36665;51.786;21.594;2023-02-04T12:05:09;21.70;;;7.10;;
50695;SDS011;36665;51.786;21.594;2023-02-04T12:13:48;35.50;;;14.40;;
50695;SDS011;36665;51.786;21.594;2023-02-04T12:22:14;11.30;;;5.50;;
50695;SDS011;36665;51.786;21.594;2023-02-04T12:30:37;25.90;;;10.30;;
50695;SDS011;36665;51.786;21.594;2023-02-04T12:39:00;19.50;;;7.30;;
50695;SDS011;36665;51.786;21.594;2023-02-04T12:47:24;19.80;;;8.70;;
50695;SDS011;36665;51.786;21.594;2023-02-04T12:55:47;33.20;;;12.60;;
50695;SDS011;36665;51.786;21.594;2023-02-04T13:04:10;46.70;;;17.90;;
50695;SDS011;36665;51.786;21.594;2023-02-04T13:12:33;41.00;;;17.80;;
50695;SDS011;36665;51.786;21.594;2023-02-04T13:20:56;37.60;;;14.10;;
50695;SDS011;36665;51.786;21.594;2023-02-04T13:29:19;32.10;;;15.70;;
50695;SDS011;36665;51.786;21.594;2023-02-04T13:37:43;60.30;;;28.60;;
50695;SDS011;36665;51.786;21.594;2023-02-04T13:46:07;46.40;;;16.40;;
50695;SDS011;36665;51.786;21.594;2023-02-04T13:54:30;80.90;;;24.70;;
50695;SDS011;36665;51.786;21.594;2023-02-04T14:02:53;72.80;;;26.70;;
50695;SDS011;36665;51.786;21.594;2023-02-04T14:11:18;77.00;;;28.20;;
50695;SDS011;36665;51.786;21.594;2023-02-04T14:19:41;45.20;;;17.90;;
50695;SDS011;36665;51.786;21.594;2023-02-04T14:28:04;50.30;;;21.40;;
50695;SDS011;36665;51.786;21.594;2023-02-04T14:36:27;90.90;;;40.00;;
50695;SDS011;36665;51.786;21.594;2023-02-04T14:44:50;45.50;;;20.50;;
50695;SDS011;36665;51.786;21.594;2023-02-04T14:53:13;35.10;;;14.90;;
50695;SDS011;36665;51.786;21.594;2023-02-04T15:01:36;44.40;;;15.90;;
50695;SDS011;36665;51.786;21.594;2023-02-04T15:09:59;115.30;;;44.30;;
50695;SDS011;36665;51.786;21.594;2023-02-04T15:18:22;117.60;;;49.80;;
50695;SDS011;36665;51.786;21.594;2023-02-04T15:26:45;69.50;;;28.90;;
50695;SDS011;36665;51.786;21.594;2023-02-04T15:35:08;31.90;;;15.60;;
50695;SDS011;36665;51.786;21.594;2023-02-04T15:43:31;39.30;;;20.90;;
50695;SDS011;36665;51.786;21.594;2023-02-04T15:51:54;49.60;;;20.00;;
50695;SDS011;36665;51.786;21.594;2023-02-04T16:00:17;37.30;;;12.30;;
50695;SDS011;36665;51.786;21.594;2023-02-04T16:08:40;34.50;;;12.90;;
50695;SDS011;36665;51.786;21.594;2023-02-04T16:17:03;107.70;;;38.90;;
50695;SDS011;36665;51.786;21.594;2023-02-04T16:25:28;80.60;;;27.70;;
50695;SDS011;36665;51.786;21.594;2023-02-04T16:33:52;50.50;;;21.90;;
50695;SDS011;36665;51.786;21.594;2023-02-04T16:42:15;52.80;;;19.20;;
50695;SDS011;36665;51.786;21.594;2023-02-04T16:50:38;46.10;;;21.20;;
50695;SDS011;36665;51.786;21.594;2023-02-04T16:59:01;36.00;;;16.10;;
50695;SDS011;36665;51.786;21.594;2023-02-04T17:07:25;67.00;;;30.70;;
50695;SDS011;36665;51.786;21.594;2023-02-04T17:15:49;104.40;;;42.00;;
50695;SDS011;36665;51.786;21.594;2023-02-04T17:24:12;111.20;;;39.60;;
50695;SDS011;36665;51.786;21.594;2023-02-04T17:32:35;95.90;;;35.30;;
50695;SDS011;36665;51.786;21.594;2023-02-04T17:40:58;103.60;;;38.70;;
50695;SDS011;36665;51.786;21.594;2023-02-04T17:49:22;46.30;;;16.40;;
50695;SDS011;36665;51.786;21.594;2023-02-04T17:57:45;196.30;;;76.00;;
50695;SDS011;36665;51.786;21.594;2023-02-04T18:06:30;100.50;;;35.20;;
50695;SDS011;36665;51.786;21.594;2023-02-04T18:14:51;116.60;;;38.20;;
50695;SDS011;36665;51.786;21.594;2023-02-04T18:23:15;143.00;;;54.50;;
50695;SDS011;36665;51.786;21.594;2023-02-04T18:31:42;99.60;;;30.70;;
50695;SDS011;36665;51.786;21.594;2023-02-04T18:57:33;83.70;;;30.50;;
50695;SDS011;36665;51.786;21.594;2023-02-04T19:06:00;122.80;;;48.00;;
50695;SDS011;36665;51.786;21.594;2023-02-04T19:22:59;130.60;;;52.90;;
50695;SDS011;36665;51.786;21.594;2023-02-04T19:31:22;148.10;;;54.80;;
50695;SDS011;36665;51.786;21.594;2023-02-04T19:39:54;55.20;;;23.30;;
50695;SDS011;36665;51.786;21.594;2023-02-04T19:48:36;66.60;;;21.40;;
50695;SDS011;36665;51.786;21.594;2023-02-04T19:56:59;140.50;;;49.50;;
50695;SDS011;36665;51.786;21.594;2023-02-04T20:05:22;81.70;;;24.50;;
50695;SDS011;36665;51.786;21.594;2023-02-04T20:13:52;88.30;;;24.50;;
50695;SDS011;36665;51.786;21.594;2023-02-04T20:30:45;135.80;;;48.10;;
50695;SDS011;36665;51.786;21.594;2023-02-04T20:47:44;52.10;;;20.00;;
50695;SDS011;36665;51.786;21.594;2023-02-04T20:56:22;66.50;;;20.20;;
50695;SDS011;36665;51.786;21.594;2023-02-04T21:04:49;112.20;;;37.00;;
50695;SDS011;36665;51.786;21.594;2023-02-04T21:13:15;55.90;;;19.70;;
50695;SDS011;36665;51.786;21.594;2023-02-04T21:21:38;59.50;;;20.70;;
50695;SDS011;36665;51.786;21.594;2023-02-04T21:30:01;57.10;;;20.80;;
50695;SDS011;36665;51.786;21.594;2023-02-04T21:38:24;87.10;;;32.30;;
50695;SDS011;36665;51.786;21.594;2023-02-04T21:46:47;71.80;;;22.90;;
50695;SDS011;36665;51.786;21.594;2023-02-04T21:55:11;85.50;;;32.80;;
50695;SDS011;36665;51.786;21.594;2023-02-04T22:03:36;72.70;;;24.60;;
50695;SDS011;36665;51.786;21.594;2023-02-04T22:11:59;79.30;;;28.20;;
50695;SDS011;36665;51.786;21.594;2023-02-04T22:20:22;37.70;;;12.30;;
50695;SDS011;36665;51.786;21.594;2023-02-04T22:28:47;54.80;;;21.80;;
50695;SDS011;36665;51.786;21.594;2023-02-04T22:37:10;48.70;;;16.50;;
50695;SDS011;36665;51.786;21.594;2023-02-04T22:45:33;34.20;;;14.20;;
50695;SDS011;36665;51.786;21.594;2023-02-04T22:53:56;33.50;;;12.60;;
50695;SDS011;36665;51.786;21.594;2023-02-04T23:02:20;34.90;;;13.80;;
50695;SDS011;36665;51.786;21.594;2023-02-04T23:10:43;52.00;;;20.90;;
50695;SDS011;36665;51.786;21.594;2023-02-04T23:19:09;36.20;;;14.80;;
50695;SDS011;36665;51.786;21.594;2023-02-04T23:27:32;47.10;;;16.60;;
50695;SDS011;36665;51.786;21.594;2023-02-04T23:35:55;38.50;;;20.40;;
50695;SDS011;36665;51.786;21.594;2023-02-04T23:44:18;50.10;;;14.00;;
50695;SDS011;36665;51.786;21.594;2023-02-04T23:52:41;23.20;;;7.00;;
